sensor_id;sensor_type;location;lat;lon;timestamp;P1;durP1;ratioP1;P2;durP2;ratioP2
5612;SDS011;63463;53.586;9.928;2023-02-11T00:02:05;45.73;;;20.37;;
5612;SDS011;63463;53.586;9.928;2023-02-11T00:04:32;60.40;;;21.43;;
5612;SDS011;63463;53.586;9.928;2023-02-11T00:06:58;48.13;;;20.30;;
5612;SDS011;63463;53.586;9.928;2023-02-11T00:09:24;53.10;;;19.90;;
5612;SDS011;63463;53.586;9.928;2023-02-11T00:11:49;47.00;;;21.27;;
5612;SDS011;63463;53.586;9.928;2023-02-11T00:14:15;39.10;;;19.53;;
5612;SDS011;63463;53.586;9.928;2023-02-11T00:16:41;45.33;;;18.77;;
5612;SDS011;63463;53.586;9.928;2023-02-11T00:19:08;40.10;;;18.57;;
5612;SDS011;63463;53.586;9.928;2023-02-11T00:21:34;52.70;;;20.20;;
5612;SDS011;63463;53.586;9.928;2023-02-11T00:24:00;50.30;;;19.80;;
5612;SDS011;63463;53.586;9.928;2023-02-11T00:26:27;47.00;;;19.60;;
5612;SDS011;63463;53.586;9.928;2023-02-11T00:28:53;52.90;;;19.47;;
5612;SDS011;63463;53.586;9.928;2023-02-11T00:31:21;67.57;;;20.60;;
5612;SDS011;63463;53.586;9.928;2023-02-11T00:33:47;47.70;;;18.83;;
5612;SDS011;63463;53.586;9.928;2023-02-11T00:36:14;56.60;;;20.60;;
5612;SDS011;63463;53.586;9.928;2023-02-11T00:38:44;42.10;;;19.83;;
5612;SDS011;63463;53.586;9.928;2023-02-11T00:41:10;42.77;;;20.80;;
5612;SDS011;63463;53.586;9.928;2023-02-11T00:43:37;51.83;;;21.50;;
5612;SDS011;63463;53.586;9.928;2023-02-11T00:46:03;56.67;;;22.00;;
5612;SDS011;63463;53.586;9.928;2023-02-11T00:48:29;56.30;;;21.87;;
5612;SDS011;63463;53.586;9.928;2023-02-11T00:50:55;43.63;;;19.27;;
5612;SDS011;63463;53.586;9.928;2023-02-11T00:53:21;51.20;;;20.33;;
5612;SDS011;63463;53.586;9.928;2023-02-11T00:55:47;51.83;;;21.03;;
5612;SDS011;63463;53.586;9.928;2023-02-11T00:58:13;40.47;;;19.10;;
5612;SDS011;63463;53.586;9.928;2023-02-11T01:00:39;49.67;;;21.20;;
5612;SDS011;63463;53.586;9.928;2023-02-11T01:03:05;46.27;;;20.50;;
5612;SDS011;63463;53.586;9.928;2023-02-11T01:05:31;50.00;;;20.60;;
5612;SDS011;63463;53.586;9.928;2023-02-11T01:07:57;45.10;;;20.27;;
5612;SDS011;63463;53.586;9.928;2023-02-11T01:10:23;44.87;;;21.17;;
5612;SDS011;63463;53.586;9.928;2023-02-11T01:12:49;43.47;;;20.43;;
5612;SDS011;63463;53.586;9.928;2023-02-11T01:15:16;61.33;;;22.50;;
5612;SDS011;63463;53.586;9.928;2023-02-11T01:17:43;66.60;;;21.67;;
5612;SDS011;63463;53.586;9.928;2023-02-11T01:20:16;53.30;;;21.80;;
5612;SDS011;63463;53.586;9.928;2023-02-11T01:22:42;43.97;;;21.13;;
5612;SDS011;63463;53.586;9.928;2023-02-11T01:25:08;48.73;;;22.63;;
5612;SDS011;63463;53.586;9.928;2023-02-11T01:27:35;52.93;;;22.30;;
5612;SDS011;63463;53.586;9.928;2023-02-11T01:30:01;46.03;;;22.00;;
5612;SDS011;63463;53.586;9.928;2023-02-11T01:32:27;57.03;;;22.83;;
5612;SDS011;63463;53.586;9.928;2023-02-11T01:34:53;58.03;;;22.53;;
5612;SDS011;63463;53.586;9.928;2023-02-11T01:37:19;44.53;;;20.00;;
5612;SDS011;63463;53.586;9.928;2023-02-11T01:39:45;53.47;;;22.87;;
5612;SDS011;63463;53.586;9.928;2023-02-11T01:42:14;64.63;;;22.83;;
5612;SDS011;63463;53.586;9.928;2023-02-11T01:44:40;60.20;;;21.90;;
5612;SDS011;63463;53.586;9.928;2023-02-11T01:47:06;53.07;;;22.07;;
5612;SDS011;63463;53.586;9.928;2023-02-11T01:49:33;55.53;;;22.10;;
5612;SDS011;63463;53.586;9.928;2023-02-11T01:54:27;44.43;;;20.93;;
5612;SDS011;63463;53.586;9.928;2023-02-11T01:57:14;57.13;;;24.63;;
5612;SDS011;63463;53.586;9.928;2023-02-11T02:02:13;64.03;;;23.13;;
5612;SDS011;63463;53.586;9.928;2023-02-11T02:04:46;53.43;;;22.97;;
5612;SDS011;63463;53.586;9.928;2023-02-11T02:07:16;50.80;;;22.33;;
5612;SDS011;63463;53.586;9.928;2023-02-11T02:09:45;50.50;;;22.40;;
5612;SDS011;63463;53.586;9.928;2023-02-11T02:12:13;50.83;;;22.33;;
5612;SDS011;63463;53.586;9.928;2023-02-11T02:14:40;38.80;;;20.60;;
5612;SDS011;63463;53.586;9.928;2023-02-11T02:17:06;54.57;;;21.03;;
5612;SDS011;63463;53.586;9.928;2023-02-11T02:19:54;58.93;;;23.43;;
5612;SDS011;63463;53.586;9.928;2023-02-11T02:27:28;47.03;;;20.67;;
5612;SDS011;63463;53.586;9.928;2023-02-11T02:34:57;54.40;;;20.73;;
5612;SDS011;63463;53.586;9.928;2023-02-11T02:37:30;42.77;;;21.07;;
5612;SDS011;63463;53.586;9.928;2023-02-11T02:39:58;61.80;;;20.97;;
5612;SDS011;63463;53.586;9.928;2023-02-11T02:42:24;55.43;;;20.50;;
5612;SDS011;63463;53.586;9.928;2023-02-11T02:44:50;48.07;;;20.87;;
5612;SDS011;63463;53.586;9.928;2023-02-11T02:47:17;41.40;;;18.20;;
5612;SDS011;63463;53.586;9.928;2023-02-11T02:49:43;49.70;;;20.50;;
5612;SDS011;63463;53.586;9.928;2023-02-11T02:52:29;39.50;;;18.37;;
5612;SDS011;63463;53.586;9.928;2023-02-11T02:55:07;41.30;;;17.80;;
5612;SDS011;63463;53.586;9.928;2023-02-11T03:00:28;53.43;;;20.37;;
5612;SDS011;63463;53.586;9.928;2023-02-11T03:03:15;47.40;;;19.60;;
5612;SDS011;63463;53.586;9.928;2023-02-11T03:06:00;45.73;;;19.70;;
5612;SDS011;63463;53.586;9.928;2023-02-11T03:10:53;51.13;;;20.77;;
5612;SDS011;63463;53.586;9.928;2023-02-11T03:13:21;48.93;;;19.50;;
5612;SDS011;63463;53.586;9.928;2023-02-11T03:15:49;51.37;;;20.17;;
5612;SDS011;63463;53.586;9.928;2023-02-11T03:18:17;55.90;;;19.63;;
5612;SDS011;63463;53.586;9.928;2023-02-11T03:20:44;40.37;;;18.97;;
5612;SDS011;63463;53.586;9.928;2023-02-11T03:25:43;48.53;;;20.40;;
5612;SDS011;63463;53.586;9.928;2023-02-11T03:28:33;47.20;;;20.50;;
5612;SDS011;63463;53.586;9.928;2023-02-11T03:33:32;51.17;;;19.20;;
5612;SDS011;63463;53.586;9.928;2023-02-11T03:36:02;47.73;;;19.17;;
5612;SDS011;63463;53.586;9.928;2023-02-11T03:38:33;49.67;;;19.40;;
5612;SDS011;63463;53.586;9.928;2023-02-11T03:41:00;40.47;;;17.40;;
5612;SDS011;63463;53.586;9.928;2023-02-11T03:43:34;47.83;;;18.37;;
5612;SDS011;63463;53.586;9.928;2023-02-11T03:46:01;54.23;;;19.23;;
5612;SDS011;63463;53.586;9.928;2023-02-11T03:48:35;39.00;;;17.63;;
5612;SDS011;63463;53.586;9.928;2023-02-11T03:51:04;41.63;;;16.83;;
5612;SDS011;63463;53.586;9.928;2023-02-11T03:53:31;44.07;;;16.00;;
5612;SDS011;63463;53.586;9.928;2023-02-11T03:55:59;50.53;;;17.30;;
5612;SDS011;63463;53.586;9.928;2023-02-11T03:58:27;31.77;;;16.10;;
5612;SDS011;63463;53.586;9.928;2023-02-11T04:00:53;46.63;;;17.60;;
5612;SDS011;63463;53.586;9.928;2023-02-11T04:03:19;36.30;;;13.53;;
5612;SDS011;63463;53.586;9.928;2023-02-11T04:05:45;40.23;;;17.13;;
5612;SDS011;63463;53.586;9.928;2023-02-11T04:08:11;39.30;;;14.83;;
5612;SDS011;63463;53.586;9.928;2023-02-11T04:10:37;44.03;;;18.10;;
5612;SDS011;63463;53.586;9.928;2023-02-11T04:13:03;34.37;;;13.90;;
5612;SDS011;63463;53.586;9.928;2023-02-11T04:15:29;40.27;;;15.47;;
5612;SDS011;63463;53.586;9.928;2023-02-11T04:17:55;37.67;;;14.47;;
5612;SDS011;63463;53.586;9.928;2023-02-11T04:20:21;45.10;;;17.00;;
5612;SDS011;63463;53.586;9.928;2023-02-11T04:22:47;32.83;;;15.30;;
5612;SDS011;63463;53.586;9.928;2023-02-11T04:25:13;48.47;;;15.83;;
5612;SDS011;63463;53.586;9.928;2023-02-11T04:27:38;31.57;;;14.87;;
5612;SDS011;63463;53.586;9.928;2023-02-11T04:30:05;35.57;;;14.57;;
5612;SDS011;63463;53.586;9.928;2023-02-11T04:32:31;34.47;;;14.27;;
5612;SDS011;63463;53.586;9.928;2023-02-11T04:34:57;45.40;;;14.43;;
5612;SDS011;63463;53.586;9.928;2023-02-11T04:37:23;40.17;;;15.20;;
5612;SDS011;63463;53.586;9.928;2023-02-11T04:39:49;39.40;;;14.10;;
5612;SDS011;63463;53.586;9.928;2023-02-11T04:42:15;48.23;;;15.53;;
5612;SDS011;63463;53.586;9.928;2023-02-11T04:44:41;30.93;;;14.67;;
5612;SDS011;63463;53.586;9.928;2023-02-11T04:47:07;29.30;;;14.43;;
5612;SDS011;63463;53.586;9.928;2023-02-11T04:49:33;29.50;;;14.10;;
5612;SDS011;63463;53.586;9.928;2023-02-11T04:51:59;34.40;;;14.20;;
5612;SDS011;63463;53.586;9.928;2023-02-11T04:54:28;40.67;;;13.47;;
5612;SDS011;63463;53.586;9.928;2023-02-11T04:56:54;37.00;;;15.20;;
5612;SDS011;63463;53.586;9.928;2023-02-11T04:59:20;35.00;;;14.30;;
5612;SDS011;63463;53.586;9.928;2023-02-11T05:01:46;30.80;;;13.70;;
5612;SDS011;63463;53.586;9.928;2023-02-11T05:04:13;36.07;;;14.30;;
5612;SDS011;63463;53.586;9.928;2023-02-11T05:06:39;37.67;;;13.20;;
5612;SDS011;63463;53.586;9.928;2023-02-11T05:09:05;46.07;;;14.07;;
5612;SDS011;63463;53.586;9.928;2023-02-11T05:11:31;28.87;;;13.60;;
5612;SDS011;63463;53.586;9.928;2023-02-11T05:13:57;54.07;;;16.17;;
5612;SDS011;63463;53.586;9.928;2023-02-11T05:16:23;45.57;;;15.70;;
5612;SDS011;63463;53.586;9.928;2023-02-11T05:18:49;34.87;;;13.63;;
5612;SDS011;63463;53.586;9.928;2023-02-11T05:21:16;38.23;;;13.90;;
5612;SDS011;63463;53.586;9.928;2023-02-11T05:23:42;43.67;;;14.33;;
5612;SDS011;63463;53.586;9.928;2023-02-11T05:26:09;28.43;;;14.07;;
5612;SDS011;63463;53.586;9.928;2023-02-11T05:28:35;29.43;;;14.03;;
5612;SDS011;63463;53.586;9.928;2023-02-11T05:31:02;31.80;;;13.03;;
5612;SDS011;63463;53.586;9.928;2023-02-11T05:33:28;30.00;;;13.03;;
5612;SDS011;63463;53.586;9.928;2023-02-11T05:36:00;29.23;;;13.30;;
5612;SDS011;63463;53.586;9.928;2023-02-11T05:38:27;22.30;;;12.37;;
5612;SDS011;63463;53.586;9.928;2023-02-11T05:40:53;35.67;;;13.47;;
5612;SDS011;63463;53.586;9.928;2023-02-11T05:43:19;23.73;;;10.97;;
5612;SDS011;63463;53.586;9.928;2023-02-11T05:45:45;27.90;;;14.33;;
5612;SDS011;63463;53.586;9.928;2023-02-11T05:48:11;27.90;;;13.90;;
5612;SDS011;63463;53.586;9.928;2023-02-11T05:50:37;30.47;;;11.97;;
5612;SDS011;63463;53.586;9.928;2023-02-11T05:53:03;31.90;;;14.63;;
5612;SDS011;63463;53.586;9.928;2023-02-11T05:55:31;31.03;;;13.00;;
5612;SDS011;63463;53.586;9.928;2023-02-11T05:57:56;26.37;;;14.00;;
5612;SDS011;63463;53.586;9.928;2023-02-11T06:00:23;29.33;;;12.27;;
5612;SDS011;63463;53.586;9.928;2023-02-11T06:02:49;26.33;;;12.83;;
5612;SDS011;63463;53.586;9.928;2023-02-11T06:05:15;25.47;;;11.73;;
5612;SDS011;63463;53.586;9.928;2023-02-11T06:07:41;30.57;;;13.20;;
5612;SDS011;63463;53.586;9.928;2023-02-11T06:10:07;36.10;;;14.50;;
5612;SDS011;63463;53.586;9.928;2023-02-11T06:12:33;29.33;;;14.23;;
5612;SDS011;63463;53.586;9.928;2023-02-11T06:15:00;30.27;;;14.73;;
5612;SDS011;63463;53.586;9.928;2023-02-11T06:17:26;25.70;;;14.37;;
5612;SDS011;63463;53.586;9.928;2023-02-11T06:19:56;26.63;;;14.60;;
5612;SDS011;63463;53.586;9.928;2023-02-11T06:22:22;29.23;;;15.00;;
5612;SDS011;63463;53.586;9.928;2023-02-11T06:24:48;39.93;;;17.07;;
5612;SDS011;63463;53.586;9.928;2023-02-11T06:27:14;36.70;;;15.17;;
5612;SDS011;63463;53.586;9.928;2023-02-11T06:29:41;26.93;;;14.70;;
5612;SDS011;63463;53.586;9.928;2023-02-11T06:32:07;25.27;;;14.27;;
5612;SDS011;63463;53.586;9.928;2023-02-11T06:34:33;27.73;;;15.20;;
5612;SDS011;63463;53.586;9.928;2023-02-11T06:36:59;34.43;;;15.93;;
5612;SDS011;63463;53.586;9.928;2023-02-11T06:39:25;26.73;;;15.60;;
5612;SDS011;63463;53.586;9.928;2023-02-11T06:41:51;27.33;;;15.20;;
5612;SDS011;63463;53.586;9.928;2023-02-11T06:44:19;31.40;;;15.03;;
5612;SDS011;63463;53.586;9.928;2023-02-11T06:46:46;27.40;;;13.40;;
5612;SDS011;63463;53.586;9.928;2023-02-11T06:49:12;31.90;;;13.20;;
5612;SDS011;63463;53.586;9.928;2023-02-11T06:51:39;31.37;;;14.97;;
5612;SDS011;63463;53.586;9.928;2023-02-11T06:54:06;31.30;;;12.93;;
5612;SDS011;63463;53.586;9.928;2023-02-11T06:56:32;33.10;;;12.53;;
5612;SDS011;63463;53.586;9.928;2023-02-11T06:58:58;25.70;;;13.30;;
5612;SDS011;63463;53.586;9.928;2023-02-11T07:01:25;24.97;;;13.10;;
5612;SDS011;63463;53.586;9.928;2023-02-11T07:03:52;21.43;;;11.90;;
5612;SDS011;63463;53.586;9.928;2023-02-11T07:06:19;22.07;;;12.87;;
5612;SDS011;63463;53.586;9.928;2023-02-11T07:08:46;28.80;;;12.37;;
5612;SDS011;63463;53.586;9.928;2023-02-11T07:11:13;28.17;;;13.70;;
5612;SDS011;63463;53.586;9.928;2023-02-11T07:13:39;27.77;;;13.00;;
5612;SDS011;63463;53.586;9.928;2023-02-11T07:16:06;26.47;;;12.80;;
5612;SDS011;63463;53.586;9.928;2023-02-11T07:18:32;20.80;;;11.67;;
5612;SDS011;63463;53.586;9.928;2023-02-11T07:20:58;22.60;;;12.23;;
5612;SDS011;63463;53.586;9.928;2023-02-11T07:23:24;21.23;;;12.10;;
5612;SDS011;63463;53.586;9.928;2023-02-11T07:25:50;26.00;;;12.70;;
5612;SDS011;63463;53.586;9.928;2023-02-11T07:28:16;19.87;;;12.03;;
5612;SDS011;63463;53.586;9.928;2023-02-11T07:30:42;27.33;;;14.30;;
5612;SDS011;63463;53.586;9.928;2023-02-11T07:33:08;33.60;;;15.13;;
5612;SDS011;63463;53.586;9.928;2023-02-11T07:35:34;25.03;;;13.80;;
5612;SDS011;63463;53.586;9.928;2023-02-11T07:38:00;31.23;;;14.30;;
5612;SDS011;63463;53.586;9.928;2023-02-11T07:40:26;33.87;;;13.27;;
5612;SDS011;63463;53.586;9.928;2023-02-11T07:42:53;34.27;;;12.87;;
5612;SDS011;63463;53.586;9.928;2023-02-11T07:45:18;31.23;;;13.90;;
5612;SDS011;63463;53.586;9.928;2023-02-11T07:47:44;24.43;;;13.03;;
5612;SDS011;63463;53.586;9.928;2023-02-11T07:50:10;34.33;;;14.70;;
5612;SDS011;63463;53.586;9.928;2023-02-11T07:52:36;32.27;;;15.23;;
5612;SDS011;63463;53.586;9.928;2023-02-11T07:55:03;24.67;;;14.10;;
5612;SDS011;63463;53.586;9.928;2023-02-11T07:57:29;34.53;;;15.93;;
5612;SDS011;63463;53.586;9.928;2023-02-11T07:59:55;32.13;;;14.47;;
5612;SDS011;63463;53.586;9.928;2023-02-11T08:02:21;29.60;;;13.57;;
5612;SDS011;63463;53.586;9.928;2023-02-11T08:04:46;34.93;;;16.13;;
5612;SDS011;63463;53.586;9.928;2023-02-11T08:07:14;30.33;;;14.77;;
5612;SDS011;63463;53.586;9.928;2023-02-11T08:09:40;30.23;;;15.50;;
5612;SDS011;63463;53.586;9.928;2023-02-11T08:12:06;27.97;;;14.33;;
5612;SDS011;63463;53.586;9.928;2023-02-11T08:14:32;32.93;;;14.17;;
5612;SDS011;63463;53.586;9.928;2023-02-11T08:16:57;32.50;;;15.30;;
5612;SDS011;63463;53.586;9.928;2023-02-11T08:19:23;25.40;;;13.93;;
5612;SDS011;63463;53.586;9.928;2023-02-11T08:21:49;24.07;;;13.30;;
5612;SDS011;63463;53.586;9.928;2023-02-11T08:24:15;30.23;;;14.50;;
5612;SDS011;63463;53.586;9.928;2023-02-11T08:26:42;33.00;;;15.03;;
5612;SDS011;63463;53.586;9.928;2023-02-11T08:29:10;27.70;;;14.70;;
5612;SDS011;63463;53.586;9.928;2023-02-11T08:31:37;22.93;;;12.03;;
5612;SDS011;63463;53.586;9.928;2023-02-11T08:34:04;28.03;;;14.80;;
5612;SDS011;63463;53.586;9.928;2023-02-11T08:36:31;36.53;;;15.37;;
5612;SDS011;63463;53.586;9.928;2023-02-11T08:38:58;51.80;;;15.33;;
5612;SDS011;63463;53.586;9.928;2023-02-11T08:41:27;21.00;;;13.57;;
5612;SDS011;63463;53.586;9.928;2023-02-11T08:43:53;31.60;;;14.20;;
5612;SDS011;63463;53.586;9.928;2023-02-11T08:46:19;34.07;;;13.80;;
5612;SDS011;63463;53.586;9.928;2023-02-11T08:48:45;27.50;;;14.23;;
5612;SDS011;63463;53.586;9.928;2023-02-11T08:51:13;32.37;;;14.27;;
5612;SDS011;63463;53.586;9.928;2023-02-11T08:53:40;44.37;;;15.50;;
5612;SDS011;63463;53.586;9.928;2023-02-11T08:56:07;25.87;;;13.77;;
5612;SDS011;63463;53.586;9.928;2023-02-11T08:58:34;34.27;;;14.30;;
5612;SDS011;63463;53.586;9.928;2023-02-11T09:01:00;27.50;;;13.50;;
5612;SDS011;63463;53.586;9.928;2023-02-11T09:03:26;26.73;;;12.83;;
5612;SDS011;63463;53.586;9.928;2023-02-11T09:05:53;26.03;;;12.90;;
5612;SDS011;63463;53.586;9.928;2023-02-11T09:08:20;29.70;;;12.87;;
5612;SDS011;63463;53.586;9.928;2023-02-11T09:10:47;29.40;;;12.77;;
5612;SDS011;63463;53.586;9.928;2023-02-11T09:13:13;27.97;;;13.83;;
5612;SDS011;63463;53.586;9.928;2023-02-11T09:15:40;29.20;;;12.73;;
5612;SDS011;63463;53.586;9.928;2023-02-11T09:18:09;19.97;;;11.90;;
5612;SDS011;63463;53.586;9.928;2023-02-11T09:20:35;21.57;;;12.57;;
5612;SDS011;63463;53.586;9.928;2023-02-11T09:23:01;27.70;;;12.53;;
5612;SDS011;63463;53.586;9.928;2023-02-11T09:25:27;28.27;;;12.53;;
5612;SDS011;63463;53.586;9.928;2023-02-11T09:27:53;32.47;;;13.77;;
5612;SDS011;63463;53.586;9.928;2023-02-11T09:30:19;32.90;;;12.17;;
5612;SDS011;63463;53.586;9.928;2023-02-11T09:32:45;25.83;;;12.30;;
5612;SDS011;63463;53.586;9.928;2023-02-11T09:35:11;22.03;;;11.53;;
5612;SDS011;63463;53.586;9.928;2023-02-11T09:37:37;23.80;;;11.50;;
5612;SDS011;63463;53.586;9.928;2023-02-11T09:40:03;34.00;;;12.00;;
5612;SDS011;63463;53.586;9.928;2023-02-11T09:42:36;25.23;;;11.70;;
5612;SDS011;63463;53.586;9.928;2023-02-11T09:45:05;18.90;;;10.93;;
5612;SDS011;63463;53.586;9.928;2023-02-11T09:48:37;23.30;;;11.60;;
5612;SDS011;63463;53.586;9.928;2023-02-11T09:50:35;23.30;;;10.27;;
5612;SDS011;63463;53.586;9.928;2023-02-11T09:53:05;34.40;;;11.73;;
5612;SDS011;63463;53.586;9.928;2023-02-11T09:55:35;18.97;;;10.00;;
5612;SDS011;63463;53.586;9.928;2023-02-11T09:58:07;29.77;;;10.53;;
5612;SDS011;63463;53.586;9.928;2023-02-11T10:00:39;36.50;;;9.60;;
5612;SDS011;63463;53.586;9.928;2023-02-11T10:13:37;35.83;;;10.10;;
5612;SDS011;63463;53.586;9.928;2023-02-11T10:23:38;35.57;;;9.73;;
5612;SDS011;63463;53.586;9.928;2023-02-11T10:26:13;31.30;;;9.13;;
5612;SDS011;63463;53.586;9.928;2023-02-11T10:28:41;33.43;;;10.07;;
5612;SDS011;63463;53.586;9.928;2023-02-11T10:31:10;31.27;;;9.70;;
5612;SDS011;63463;53.586;9.928;2023-02-11T10:36:12;39.23;;;9.40;;
5612;SDS011;63463;53.586;9.928;2023-02-11T10:38:39;29.73;;;10.10;;
5612;SDS011;63463;53.586;9.928;2023-02-11T10:41:05;26.67;;;9.10;;
5612;SDS011;63463;53.586;9.928;2023-02-11T10:43:31;19.73;;;7.97;;
5612;SDS011;63463;53.586;9.928;2023-02-11T10:45:58;26.00;;;8.57;;
5612;SDS011;63463;53.586;9.928;2023-02-11T10:53:38;15.90;;;7.23;;
5612;SDS011;63463;53.586;9.928;2023-02-11T10:56:05;15.63;;;7.90;;
5612;SDS011;63463;53.586;9.928;2023-02-11T10:58:36;24.93;;;7.73;;
5612;SDS011;63463;53.586;9.928;2023-02-11T11:01:05;23.80;;;7.80;;
5612;SDS011;63463;53.586;9.928;2023-02-11T11:03:33;18.83;;;7.50;;
5612;SDS011;63463;53.586;9.928;2023-02-11T11:06:01;12.30;;;7.63;;
5612;SDS011;63463;53.586;9.928;2023-02-11T11:08:45;16.37;;;7.83;;
5612;SDS011;63463;53.586;9.928;2023-02-11T11:11:14;13.43;;;7.57;;
5612;SDS011;63463;53.586;9.928;2023-02-11T11:13:53;33.07;;;8.07;;
5612;SDS011;63463;53.586;9.928;2023-02-11T11:16:25;26.80;;;7.90;;
5612;SDS011;63463;53.586;9.928;2023-02-11T11:18:53;23.37;;;8.63;;
5612;SDS011;63463;53.586;9.928;2023-02-11T11:26:46;24.30;;;7.80;;
5612;SDS011;63463;53.586;9.928;2023-02-11T11:29:17;8.87;;;5.77;;
5612;SDS011;63463;53.586;9.928;2023-02-11T11:36:44;14.77;;;6.47;;
5612;SDS011;63463;53.586;9.928;2023-02-11T11:39:16;11.23;;;6.67;;
5612;SDS011;63463;53.586;9.928;2023-02-11T11:41:51;11.13;;;5.93;;
5612;SDS011;63463;53.586;9.928;2023-02-11T11:44:25;13.60;;;6.40;;
5612;SDS011;63463;53.586;9.928;2023-02-11T11:47:04;26.20;;;6.93;;
5612;SDS011;63463;53.586;9.928;2023-02-11T11:49:33;18.33;;;7.20;;
5612;SDS011;63463;53.586;9.928;2023-02-11T11:54:46;8.63;;;6.07;;
5612;SDS011;63463;53.586;9.928;2023-02-11T11:57:17;12.00;;;6.80;;
5612;SDS011;63463;53.586;9.928;2023-02-11T11:59:46;12.83;;;5.87;;
5612;SDS011;63463;53.586;9.928;2023-02-11T12:02:22;13.13;;;6.60;;
5612;SDS011;63463;53.586;9.928;2023-02-11T12:13:12;21.27;;;6.87;;
5612;SDS011;63463;53.586;9.928;2023-02-11T12:16:03;10.33;;;5.63;;
5612;SDS011;63463;53.586;9.928;2023-02-11T12:18:37;10.60;;;6.07;;
5612;SDS011;63463;53.586;9.928;2023-02-11T12:21:14;20.40;;;6.77;;
5612;SDS011;63463;53.586;9.928;2023-02-11T12:26:21;9.30;;;5.50;;
5612;SDS011;63463;53.586;9.928;2023-02-11T12:39:24;10.83;;;5.90;;
5612;SDS011;63463;53.586;9.928;2023-02-11T12:50:16;8.73;;;5.37;;
5612;SDS011;63463;53.586;9.928;2023-02-11T12:55:18;10.70;;;5.10;;
5612;SDS011;63463;53.586;9.928;2023-02-11T12:57:45;14.33;;;6.17;;
5612;SDS011;63463;53.586;9.928;2023-02-11T13:00:19;11.70;;;6.27;;
5612;SDS011;63463;53.586;9.928;2023-02-11T13:05:51;17.97;;;5.90;;
5612;SDS011;63463;53.586;9.928;2023-02-11T13:08:20;11.30;;;6.00;;
5612;SDS011;63463;53.586;9.928;2023-02-11T13:10:53;9.23;;;5.30;;
5612;SDS011;63463;53.586;9.928;2023-02-11T13:13:21;18.23;;;5.60;;
5612;SDS011;63463;53.586;9.928;2023-02-11T13:15:53;9.90;;;6.00;;
5612;SDS011;63463;53.586;9.928;2023-02-11T13:18:26;11.00;;;6.00;;
5612;SDS011;63463;53.586;9.928;2023-02-11T13:23:40;8.17;;;5.17;;
5612;SDS011;63463;53.586;9.928;2023-02-11T13:26:13;12.00;;;5.10;;
5612;SDS011;63463;53.586;9.928;2023-02-11T13:28:55;8.73;;;5.77;;
5612;SDS011;63463;53.586;9.928;2023-02-11T13:31:22;29.57;;;6.43;;
5612;SDS011;63463;53.586;9.928;2023-02-11T13:33:51;10.60;;;5.50;;
5612;SDS011;63463;53.586;9.928;2023-02-11T13:36:18;25.90;;;6.13;;
5612;SDS011;63463;53.586;9.928;2023-02-11T13:38:51;17.90;;;6.07;;
5612;SDS011;63463;53.586;9.928;2023-02-11T13:41:23;19.83;;;7.47;;
5612;SDS011;63463;53.586;9.928;2023-02-11T13:43:58;19.37;;;6.57;;
5612;SDS011;63463;53.586;9.928;2023-02-11T13:46:24;16.37;;;6.80;;
5612;SDS011;63463;53.586;9.928;2023-02-11T13:48:52;28.93;;;6.53;;
5612;SDS011;63463;53.586;9.928;2023-02-11T13:51:39;21.27;;;6.40;;
5612;SDS011;63463;53.586;9.928;2023-02-11T13:54:06;17.37;;;6.07;;
5612;SDS011;63463;53.586;9.928;2023-02-11T13:56:39;14.87;;;6.20;;
5612;SDS011;63463;53.586;9.928;2023-02-11T14:10:48;34.13;;;7.60;;
5612;SDS011;63463;53.586;9.928;2023-02-11T14:13:25;24.83;;;6.80;;
5612;SDS011;63463;53.586;9.928;2023-02-11T14:16:10;20.90;;;6.70;;
5612;SDS011;63463;53.586;9.928;2023-02-11T14:21:19;21.73;;;6.80;;
5612;SDS011;63463;53.586;9.928;2023-02-11T14:23:47;29.53;;;6.93;;
5612;SDS011;63463;53.586;9.928;2023-02-11T14:31:34;23.73;;;7.00;;
5612;SDS011;63463;53.586;9.928;2023-02-11T14:36:49;16.83;;;6.50;;
5612;SDS011;63463;53.586;9.928;2023-02-11T14:41:48;14.60;;;6.10;;
5612;SDS011;63463;53.586;9.928;2023-02-11T14:44:27;15.40;;;6.60;;
5612;SDS011;63463;53.586;9.928;2023-02-11T14:46:53;28.40;;;7.60;;
5612;SDS011;63463;53.586;9.928;2023-02-11T14:49:23;27.83;;;7.43;;
5612;SDS011;63463;53.586;9.928;2023-02-11T14:51:52;24.77;;;6.97;;
5612;SDS011;63463;53.586;9.928;2023-02-11T14:54:22;19.30;;;5.93;;
5612;SDS011;63463;53.586;9.928;2023-02-11T14:57:07;22.90;;;6.07;;
5612;SDS011;63463;53.586;9.928;2023-02-11T14:59:33;23.60;;;6.27;;
5612;SDS011;63463;53.586;9.928;2023-02-11T15:01:59;15.47;;;6.50;;
5612;SDS011;63463;53.586;9.928;2023-02-11T15:04:28;21.80;;;6.60;;
5612;SDS011;63463;53.586;9.928;2023-02-11T15:06:56;14.87;;;5.87;;
5612;SDS011;63463;53.586;9.928;2023-02-11T15:11:55;16.47;;;6.20;;
5612;SDS011;63463;53.586;9.928;2023-02-11T15:14:26;23.23;;;6.60;;
5612;SDS011;63463;53.586;9.928;2023-02-11T15:16:53;15.13;;;6.37;;
5612;SDS011;63463;53.586;9.928;2023-02-11T15:19:23;12.33;;;7.00;;
5612;SDS011;63463;53.586;9.928;2023-02-11T15:21:51;16.27;;;6.07;;
5612;SDS011;63463;53.586;9.928;2023-02-11T15:24:21;10.33;;;5.77;;
5612;SDS011;63463;53.586;9.928;2023-02-11T15:26:57;17.07;;;6.17;;
5612;SDS011;63463;53.586;9.928;2023-02-11T15:29:24;14.83;;;6.70;;
5612;SDS011;63463;53.586;9.928;2023-02-11T15:32:11;13.10;;;6.20;;
5612;SDS011;63463;53.586;9.928;2023-02-11T15:34:38;21.70;;;6.80;;
5612;SDS011;63463;53.586;9.928;2023-02-11T15:49:55;29.23;;;8.40;;
5612;SDS011;63463;53.586;9.928;2023-02-11T15:52:23;32.87;;;7.77;;
5612;SDS011;63463;53.586;9.928;2023-02-11T15:54:49;21.23;;;7.43;;
5612;SDS011;63463;53.586;9.928;2023-02-11T15:57:15;19.37;;;7.63;;
5612;SDS011;63463;53.586;9.928;2023-02-11T15:59:46;35.17;;;7.23;;
5612;SDS011;63463;53.586;9.928;2023-02-11T16:02:30;21.60;;;7.37;;
5612;SDS011;63463;53.586;9.928;2023-02-11T16:05:02;19.60;;;6.00;;
5612;SDS011;63463;53.586;9.928;2023-02-11T16:07:47;21.80;;;5.90;;
5612;SDS011;63463;53.586;9.928;2023-02-11T16:12:50;24.80;;;7.03;;
5612;SDS011;63463;53.586;9.928;2023-02-11T16:17:55;17.63;;;7.10;;
5612;SDS011;63463;53.586;9.928;2023-02-11T16:20:21;23.13;;;7.17;;
5612;SDS011;63463;53.586;9.928;2023-02-11T16:22:47;23.00;;;6.90;;
5612;SDS011;63463;53.586;9.928;2023-02-11T16:25:17;19.20;;;7.37;;
5612;SDS011;63463;53.586;9.928;2023-02-11T16:27:46;28.80;;;7.57;;
5612;SDS011;63463;53.586;9.928;2023-02-11T16:30:33;20.67;;;7.77;;
5612;SDS011;63463;53.586;9.928;2023-02-11T16:33:03;26.30;;;8.40;;
5612;SDS011;63463;53.586;9.928;2023-02-11T16:35:36;27.30;;;8.97;;
5612;SDS011;63463;53.586;9.928;2023-02-11T16:38:06;31.97;;;8.33;;
5612;SDS011;63463;53.586;9.928;2023-02-11T16:40:32;34.23;;;9.53;;
5612;SDS011;63463;53.586;9.928;2023-02-11T16:42:58;32.47;;;9.00;;
5612;SDS011;63463;53.586;9.928;2023-02-11T16:45:28;36.40;;;8.93;;
5612;SDS011;63463;53.586;9.928;2023-02-11T16:47:54;25.90;;;9.20;;
5612;SDS011;63463;53.586;9.928;2023-02-11T16:50:21;38.13;;;10.70;;
5612;SDS011;63463;53.586;9.928;2023-02-11T16:52:48;34.60;;;10.27;;
5612;SDS011;63463;53.586;9.928;2023-02-11T16:55:16;29.27;;;8.90;;
5612;SDS011;63463;53.586;9.928;2023-02-11T16:58:25;28.93;;;9.03;;
5612;SDS011;63463;53.586;9.928;2023-02-11T17:00:32;32.97;;;9.50;;
5612;SDS011;63463;53.586;9.928;2023-02-11T17:02:58;34.33;;;8.67;;
5612;SDS011;63463;53.586;9.928;2023-02-11T17:05:24;43.73;;;10.27;;
5612;SDS011;63463;53.586;9.928;2023-02-11T17:07:50;24.00;;;8.50;;
5612;SDS011;63463;53.586;9.928;2023-02-11T17:10:18;29.73;;;8.73;;
5612;SDS011;63463;53.586;9.928;2023-02-11T17:12:44;27.63;;;8.53;;
5612;SDS011;63463;53.586;9.928;2023-02-11T17:15:11;41.13;;;9.70;;